Time;durP1;ratioP1;P1;durP2;ratioP2;P2;SDS_P1;SDS_P2;PMS_P1;PMS_P2;Temp;Humidity;BMP_temperature;BMP_pressure;BME280_temperature;BME280_humidity;BME280_pressure;Samples;Min_cycle;Max_cycle;Signal;HPM_P1;HPM_P2
2021/12/11 00:00:09;;;;;;;9.27;8.13;;;6.90;93.40;;;;;;972030;143;27795;-79
2021/12/11 00:02:36;;;;;;;8.17;7.37;;;6.90;93.40;;;;;;970961;146;27284;-78
2021/12/11 00:05:03;;;;;;;12.97;8.43;;;6.80;93.40;;;;;;977846;145;27265;-78
2021/12/11 00:07:29;;;;;;;9.60;7.97;;;6.90;93.40;;;;;;977937;143;27281;-78
2021/12/11 00:10:14;;;;;;;9.70;8.67;;;6.80;93.50;;;;;;973503;143;27278;-78
2021/12/11 00:12:40;;;;;;;10.43;7.83;;;6.80;93.50;;;;;;957288;147;27957;-78
2021/12/11 00:15:10;;;;;;;8.37;7.57;;;6.80;93.60;;;;;;984021;142;27439;-78
2021/12/11 00:17:37;;;;;;;10.17;8.67;;;6.80;93.50;;;;;;971947;142;27415;-79
2021/12/11 00:20:03;;;;;;;8.90;8.00;;;6.80;93.80;;;;;;985260;142;27221;-78
2021/12/11 00:22:30;;;;;;;11.93;8.03;;;6.80;93.50;;;;;;981346;142;27429;-77
2021/12/11 00:25:05;;;;;;;10.63;8.17;;;6.80;93.50;;;;;;989317;142;27272;-79
2021/12/11 00:27:29;;;;;;;9.47;8.47;;;6.80;93.60;;;;;;985054;142;27322;-78
2021/12/11 00:29:56;;;;;;;10.93;8.53;;;6.80;93.60;;;;;;984704;145;27357;-79
2021/12/11 00:32:23;;;;;;;11.20;8.53;;;6.80;93.70;;;;;;982164;142;27317;-79
2021/12/11 00:34:49;;;;;;;9.93;8.60;;;6.80;93.70;;;;;;983958;144;27356;-78
2021/12/11 00:37:17;;;;;;;9.57;8.03;;;6.80;93.80;;;;;;986896;142;27358;-78
2021/12/11 00:39:48;;;;;;;8.33;7.40;;;6.80;93.90;;;;;;987755;145;27367;-79
2021/12/11 00:42:15;;;;;;;9.27;8.27;;;6.90;93.90;;;;;;995766;142;27232;-79
2021/12/11 00:44:47;;;;;;;9.23;8.30;;;6.90;93.90;;;;;;987541;142;27377;-78
2021/12/11 00:47:22;;;;;;;9.87;8.07;;;6.90;93.90;;;;;;986004;142;27770;-78
2021/12/11 00:50:04;;;;;;;10.70;8.87;;;6.90;93.90;;;;;;988919;145;27341;-79
2021/12/11 00:52:45;;;;;;;12.03;8.77;;;6.90;93.90;;;;;;988696;142;27345;-79
2021/12/11 00:55:26;;;;;;;9.77;8.87;;;6.90;93.90;;;;;;989330;145;27721;-78
2021/12/11 00:58:02;;;;;;;10.57;9.23;;;6.90;93.90;;;;;;989218;142;27268;-77
2021/12/11 01:00:28;;;;;;;9.57;8.57;;;6.90;93.80;;;;;;986711;145;27345;-79
2021/12/11 01:02:55;;;;;;;10.17;8.97;;;6.90;93.80;;;;;;996682;142;27190;-79
2021/12/11 01:05:22;;;;;;;10.40;9.30;;;6.90;93.80;;;;;;991292;142;27302;-78
2021/12/11 01:07:48;;;;;;;12.80;10.10;;;6.90;93.80;;;;;;1005498;142;27351;-79
2021/12/11 01:10:21;;;;;;;11.73;9.30;;;6.90;94.10;;;;;;988202;145;27339;-79
2021/12/11 01:12:49;;;;;;;11.13;10.03;;;6.90;93.80;;;;;;998825;142;27378;-78
2021/12/11 01:15:17;;;;;;;10.53;8.90;;;6.90;93.80;;;;;;987323;142;27646;-79
2021/12/11 01:18:01;;;;;;;14.67;9.87;;;6.90;93.70;;;;;;975643;143;27235;-79
2021/12/11 01:20:13;;;;;;;11.57;10.33;;;7.00;93.70;;;;;;973983;143;27397;-78
2021/12/11 01:22:39;;;;;;;12.30;10.00;;;6.90;93.70;;;;;;981500;143;27214;-79
2021/12/11 01:25:15;;;;;;;10.30;9.23;;;6.90;93.70;;;;;;972135;143;27266;-78
2021/12/11 01:27:41;;;;;;;10.70;9.57;;;6.90;93.60;;;;;;963697;145;27304;-79
2021/12/11 01:30:08;;;;;;;12.03;10.07;;;6.90;93.70;;;;;;974761;146;27311;-79
2021/12/11 01:32:35;;;;;;;11.87;9.83;;;6.90;93.70;;;;;;990978;143;27360;-79
2021/12/11 01:35:01;;;;;;;11.60;9.53;;;6.90;93.70;;;;;;966630;147;27414;-77
2021/12/11 01:37:28;;;;;;;12.27;9.33;;;6.90;93.70;;;;;;972659;146;27318;-79
2021/12/11 01:39:54;;;;;;;11.13;9.30;;;6.90;93.70;;;;;;975676;146;27682;-79
2021/12/11 01:42:24;;;;;;;10.77;9.60;;;6.90;93.80;;;;;;979838;146;27265;-79
2021/12/11 01:44:50;;;;;;;10.80;9.50;;;6.90;93.80;;;;;;980957;143;27230;-79
2021/12/11 01:47:18;;;;;;;12.90;9.90;;;6.90;93.90;;;;;;975067;143;27258;-79
2021/12/11 01:49:43;;;;;;;12.23;9.63;;;6.90;93.80;;;;;;981243;143;27321;-78
2021/12/11 01:52:13;;;;;;;11.70;9.63;;;6.90;93.90;;;;;;974193;143;27305;-78
2021/12/11 01:54:40;;;;;;;12.70;10.60;;;6.90;93.90;;;;;;968516;146;27283;-78
2021/12/11 01:57:09;;;;;;;12.23;10.40;;;6.90;93.90;;;;;;976502;147;27438;-78
2021/12/11 01:59:35;;;;;;;12.43;9.90;;;6.90;93.90;;;;;;964778;147;27282;-78
2021/12/11 02:02:05;;;;;;;11.67;10.40;;;6.90;93.90;;;;;;973693;147;27282;-79
2021/12/11 02:04:32;;;;;;;13.90;10.70;;;7.00;93.90;;;;;;978938;143;27284;-78
2021/12/11 02:06:58;;;;;;;13.07;11.00;;;6.90;93.90;;;;;;988972;143;27572;-79
2021/12/11 02:09:24;;;;;;;12.17;10.03;;;7.00;93.90;;;;;;967506;143;27286;-79
2021/12/11 02:11:51;;;;;;;13.03;11.07;;;6.90;93.80;;;;;;998731;143;27221;-79
2021/12/11 02:14:22;;;;;;;12.60;11.03;;;6.90;93.70;;;;;;968275;143;27310;-77
2021/12/11 02:16:45;;;;;;;12.47;10.97;;;6.90;93.70;;;;;;987234;145;27792;-78
2021/12/11 02:19:11;;;;;;;12.40;10.17;;;6.90;93.70;;;;;;990000;142;27357;-79
2021/12/11 02:22:02;;;;;;;13.53;10.90;;;6.90;93.80;;;;;;987932;145;27270;-78
2021/12/11 02:24:31;;;;;;;12.73;10.33;;;6.90;93.80;;;;;;987294;145;27276;-79
2021/12/11 02:26:58;;;;;;;12.37;10.47;;;6.90;93.80;;;;;;983813;143;27381;-79
2021/12/11 02:29:25;;;;;;;11.57;9.93;;;6.90;93.80;;;;;;969847;145;27287;-78
2021/12/11 02:32:00;;;;;;;13.33;10.77;;;6.90;93.80;;;;;;974923;145;27247;-79
2021/12/11 02:34:27;;;;;;;12.03;10.53;;;6.90;93.70;;;;;;990589;145;27271;-78
2021/12/11 02:36:59;;;;;;;15.00;11.17;;;6.80;93.70;;;;;;968784;148;27312;-79
2021/12/11 02:39:25;;;;;;;12.70;10.87;;;6.80;93.70;;;;;;987664;142;27295;-79
2021/12/11 02:41:58;;;;;;;11.80;10.40;;;6.80;93.80;;;;;;983850;145;27317;-79
2021/12/11 02:44:30;;;;;;;12.40;10.03;;;6.80;93.80;;;;;;965159;147;27275;-79
2021/12/11 02:47:18;;;;;;;12.63;10.27;;;6.80;93.90;;;;;;956963;148;27320;-79
2021/12/11 02:49:57;;;;;;;11.77;9.90;;;6.80;93.90;;;;;;960247;147;27260;-78
2021/12/11 02:52:23;;;;;;;11.27;10.10;;;6.80;94.00;;;;;;970635;147;27759;-78
2021/12/11 02:54:59;;;;;;;11.90;9.87;;;6.80;94.10;;;;;;959727;149;27392;-79
2021/12/11 02:57:25;;;;;;;11.67;10.00;;;6.80;94.20;;;;;;959919;147;27291;-78
2021/12/11 02:59:53;;;;;;;10.93;9.67;;;6.80;94.10;;;;;;965514;147;27270;-78
2021/12/11 03:02:19;;;;;;;12.23;10.40;;;6.80;93.80;;;;;;965911;147;27250;-78
2021/12/11 03:05:04;;;;;;;13.90;10.67;;;6.80;94.10;;;;;;967084;147;27739;-79
2021/12/11 03:07:14;;;;;;;14.03;11.33;;;6.80;94.10;;;;;;975583;145;27278;-79
2021/12/11 03:09:38;;;;;;;12.90;10.67;;;6.80;94.10;;;;;;967311;146;27341;-77
2021/12/11 03:12:05;;;;;;;13.40;9.97;;;6.80;94.20;;;;;;953994;148;27389;-77
2021/12/11 03:14:31;;;;;;;11.67;10.30;;;6.80;94.10;;;;;;935695;151;27329;-79
2021/12/11 03:16:58;;;;;;;12.27;10.97;;;6.80;94.10;;;;;;950848;148;27391;-78
2021/12/11 03:19:25;;;;;;;12.63;11.03;;;6.80;94.10;;;;;;967724;146;27361;-78
2021/12/11 03:21:51;;;;;;;13.07;10.40;;;6.80;94.10;;;;;;970366;145;27839;-71
2021/12/11 03:24:18;;;;;;;14.53;11.17;;;6.80;94.10;;;;;;980526;145;27278;-71
2021/12/11 03:26:44;;;;;;;12.13;10.83;;;6.80;94.10;;;;;;969418;145;27283;-71
2021/12/11 03:29:11;;;;;;;15.30;11.73;;;6.80;94.10;;;;;;959185;148;27395;-71
2021/12/11 03:31:38;;;;;;;13.37;10.93;;;6.80;94.20;;;;;;959321;148;27285;-71
2021/12/11 03:34:04;;;;;;;12.67;11.03;;;6.80;94.20;;;;;;964059;146;27399;-71
2021/12/11 03:36:33;;;;;;;13.30;11.30;;;6.80;94.20;;;;;;959479;148;27352;-71
2021/12/11 03:38:57;;;;;;;13.73;11.90;;;6.80;94.20;;;;;;960768;148;27376;-72
2021/12/11 03:41:24;;;;;;;13.97;12.10;;;6.90;94.20;;;;;;956110;148;27252;-71
2021/12/11 03:43:51;;;;;;;15.03;11.77;;;6.80;94.20;;;;;;959109;148;27248;-71
2021/12/11 03:46:17;;;;;;;13.17;10.97;;;6.80;94.20;;;;;;952470;149;27308;-78
2021/12/11 03:48:44;;;;;;;13.90;11.27;;;6.90;94.20;;;;;;964705;146;27291;-78
2021/12/11 03:51:10;;;;;;;14.73;11.20;;;6.90;94.30;;;;;;952474;149;27256;-78
2021/12/11 03:53:37;;;;;;;13.27;11.47;;;6.80;94.20;;;;;;971455;146;27772;-77
2021/12/11 03:56:03;;;;;;;13.07;11.13;;;6.90;94.30;;;;;;974568;145;27340;-78
2021/12/11 03:58:30;;;;;;;12.97;11.30;;;6.90;94.20;;;;;;961601;148;27416;-79
2021/12/11 04:01:08;;;;;;;12.13;10.73;;;6.90;94.20;;;;;;977087;145;27339;-79
2021/12/11 04:03:35;;;;;;;14.60;11.07;;;6.80;94.20;;;;;;981555;145;27319;-78
2021/12/11 04:06:02;;;;;;;12.83;10.23;;;6.80;94.30;;;;;;973768;145;27324;-78
2021/12/11 04:08:28;;;;;;;11.13;9.93;;;6.80;94.20;;;;;;987546;145;27371;-79
2021/12/11 04:10:55;;;;;;;11.30;10.07;;;6.80;94.30;;;;;;973627;145;27396;-79
2021/12/11 04:13:21;;;;;;;12.00;10.63;;;6.80;94.20;;;;;;942938;148;27395;-75
2021/12/11 04:15:48;;;;;;;13.20;10.70;;;6.80;94.20;;;;;;951675;148;27345;-77
2021/12/11 04:18:15;;;;;;;12.63;9.93;;;6.80;94.20;;;;;;957322;148;27278;-79
2021/12/11 04:20:42;;;;;;;11.03;9.90;;;6.80;94.20;;;;;;951850;148;27294;-79
2021/12/11 04:23:08;;;;;;;13.00;10.93;;;6.80;94.20;;;;;;946098;151;27611;-79
2021/12/11 04:25:34;;;;;;;10.87;9.73;;;6.80;94.20;;;;;;952487;149;27345;-79
2021/12/11 04:28:01;;;;;;;11.23;10.10;;;6.70;94.20;;;;;;951088;150;27376;-78
2021/12/11 04:30:28;;;;;;;12.47;10.43;;;6.70;94.30;;;;;;953363;147;27370;-78
2021/12/11 04:32:54;;;;;;;11.93;10.27;;;6.70;94.30;;;;;;935274;151;27656;-79
2021/12/11 04:35:21;;;;;;;11.43;10.33;;;6.70;94.30;;;;;;939219;149;27894;-78
2021/12/11 04:37:47;;;;;;;11.17;9.33;;;6.70;94.40;;;;;;937792;151;27325;-79
2021/12/11 04:40:14;;;;;;;10.07;8.40;;;6.70;94.40;;;;;;953160;150;27283;-79
2021/12/11 04:45:26;;;;;;;9.47;8.43;;;6.70;94.30;;;;;;958711;146;27878;-79
2021/12/11 04:48:05;;;;;;;10.10;9.07;;;6.70;94.60;;;;;;951567;148;27401;-78
2021/12/11 04:50:31;;;;;;;10.13;9.07;;;6.70;94.30;;;;;;955319;150;27924;-79
2021/12/11 04:58:25;;;;;;;11.50;9.57;;;6.70;94.20;;;;;;956962;146;27310;-80
2021/12/11 05:01:00;;;;;;;10.73;9.20;;;6.70;94.20;;;;;;934825;150;27433;-79
2021/12/11 05:03:48;;;;;;;11.07;8.60;;;6.60;94.10;;;;;;943847;150;27317;-78
2021/12/11 05:11:16;;;;;;;10.70;9.07;;;6.60;94.20;;;;;;956744;146;27341;-79
2021/12/11 05:13:41;;;;;;;11.07;9.10;;;6.60;94.30;;;;;;957339;148;27283;-79
2021/12/11 05:16:08;;;;;;;12.23;9.27;;;6.50;94.30;;;;;;957991;148;27656;-77
2021/12/11 05:18:34;;;;;;;10.77;9.30;;;6.50;94.40;;;;;;957902;148;27379;-80
2021/12/11 05:21:01;;;;;;;11.07;9.13;;;6.50;94.40;;;;;;967559;148;27587;-80
2021/12/11 05:23:28;;;;;;;9.90;8.67;;;6.50;94.40;;;;;;963436;147;27259;-79
2021/12/11 05:25:54;;;;;;;11.27;9.37;;;6.50;94.50;;;;;;947061;148;27334;-78
2021/12/11 05:28:21;;;;;;;12.90;9.87;;;6.50;94.40;;;;;;956978;147;27393;-79
2021/12/11 05:30:47;;;;;;;11.23;8.53;;;6.50;94.50;;;;;;970497;145;27400;-80
2021/12/11 05:33:14;;;;;;;13.43;9.77;;;6.50;94.40;;;;;;942281;151;27407;-79
2021/12/11 05:35:41;;;;;;;10.63;9.53;;;6.50;94.50;;;;;;954829;148;27409;-78
2021/12/11 05:38:07;;;;;;;12.10;9.07;;;6.50;94.60;;;;;;943618;150;27337;-79
2021/12/11 05:40:34;;;;;;;11.27;9.80;;;6.50;94.60;;;;;;952601;148;27389;-79
2021/12/11 05:43:00;;;;;;;9.47;8.40;;;6.50;94.70;;;;;;979078;145;27260;-78
2021/12/11 05:45:27;;;;;;;11.27;9.93;;;6.50;94.60;;;;;;968159;145;27320;-79
2021/12/11 05:47:54;;;;;;;10.70;9.60;;;6.50;94.50;;;;;;955594;149;27329;-79
2021/12/11 05:50:20;;;;;;;11.20;9.50;;;6.50;94.50;;;;;;948297;149;27335;-78
2021/12/11 05:52:48;;;;;;;10.33;9.13;;;6.50;94.50;;;;;;950246;147;27473;-80
2021/12/11 05:55:16;;;;;;;11.87;9.33;;;6.50;94.50;;;;;;950149;147;27356;-79
2021/12/11 05:57:41;;;;;;;11.43;9.53;;;6.50;94.50;;;;;;944874;147;27523;-78
2021/12/11 06:00:06;;;;;;;10.80;9.67;;;6.50;94.60;;;;;;974375;145;27430;-79
2021/12/11 06:02:33;;;;;;;11.83;9.13;;;6.50;94.50;;;;;;955198;148;27320;-78
2021/12/11 06:05:00;;;;;;;10.27;9.27;;;6.50;94.60;;;;;;960091;148;27319;-79
2021/12/11 06:07:26;;;;;;;12.97;9.80;;;6.50;94.60;;;;;;958615;148;27338;-79
2021/12/11 06:09:53;;;;;;;9.93;8.93;;;6.50;94.60;;;;;;994573;142;27266;-79
2021/12/11 06:12:19;;;;;;;10.83;9.40;;;6.50;94.60;;;;;;1000164;142;27257;-77
2021/12/11 06:14:46;;;;;;;10.33;9.17;;;6.50;94.60;;;;;;992840;142;27264;-79
2021/12/11 06:17:13;;;;;;;9.87;8.80;;;6.50;94.60;;;;;;993590;142;27433;-79
2021/12/11 06:19:41;;;;;;;10.97;9.10;;;6.50;94.60;;;;;;965325;146;27384;-79
2021/12/11 06:22:06;;;;;;;10.70;9.27;;;6.50;94.50;;;;;;968764;146;27263;-80
2021/12/11 06:24:32;;;;;;;10.07;9.07;;;6.50;94.70;;;;;;975575;143;27661;-79
2021/12/11 06:26:59;;;;;;;10.43;9.37;;;6.50;94.60;;;;;;979319;146;27346;-79
2021/12/11 06:29:25;;;;;;;12.13;10.40;;;6.50;94.60;;;;;;968753;146;27256;-79
2021/12/11 06:31:52;;;;;;;12.27;11.07;;;6.50;94.60;;;;;;971784;146;27333;-78
2021/12/11 06:34:19;;;;;;;12.13;10.63;;;6.50;94.60;;;;;;975898;146;27365;-79
2021/12/11 06:36:45;;;;;;;11.50;10.30;;;6.50;94.60;;;;;;975933;143;27240;-79
2021/12/11 06:39:12;;;;;;;11.30;10.13;;;6.50;94.70;;;;;;969498;146;27371;-78
2021/12/11 06:41:38;;;;;;;11.43;10.27;;;6.50;94.70;;;;;;975167;146;27401;-79
2021/12/11 06:44:05;;;;;;;11.33;10.10;;;6.50;94.70;;;;;;981305;146;27275;-79
2021/12/11 06:46:33;;;;;;;11.53;10.17;;;6.50;94.60;;;;;;973457;146;27249;-79
2021/12/11 06:48:58;;;;;;;12.30;9.40;;;6.50;94.60;;;;;;962212;147;27270;-80
2021/12/11 06:51:25;;;;;;;10.73;9.30;;;6.50;94.60;;;;;;948126;148;27421;-79
2021/12/11 06:53:58;;;;;;;11.20;10.03;;;6.40;94.60;;;;;;975732;145;27268;-80
2021/12/11 06:56:24;;;;;;;11.37;9.27;;;6.40;94.60;;;;;;987332;144;27297;-79
2021/12/11 06:58:51;;;;;;;10.83;8.87;;;6.40;94.60;;;;;;966165;147;27227;-80
2021/12/11 07:01:17;;;;;;;10.63;9.53;;;6.40;94.60;;;;;;983039;144;27364;-79
2021/12/11 07:03:44;;;;;;;10.97;9.87;;;6.40;94.70;;;;;;979594;144;27306;-79
2021/12/11 07:06:10;;;;;;;10.33;9.30;;;6.40;94.70;;;;;;973027;145;27355;-79
2021/12/11 07:08:38;;;;;;;10.60;9.50;;;6.40;95.00;;;;;;987314;144;27254;-78
2021/12/11 07:11:03;;;;;;;11.50;9.30;;;6.40;94.70;;;;;;984488;142;27274;-79
2021/12/11 07:13:30;;;;;;;11.53;9.83;;;6.40;94.70;;;;;;972713;145;27364;-80
2021/12/11 07:15:56;;;;;;;11.43;10.23;;;6.40;94.80;;;;;;984966;144;27795;-80
2021/12/11 07:18:27;;;;;;;10.67;9.53;;;6.40;94.70;;;;;;984580;145;27416;-79
2021/12/11 07:20:52;;;;;;;11.37;10.17;;;6.40;94.70;;;;;;985375;145;27563;-79
2021/12/11 07:23:19;;;;;;;10.30;9.27;;;6.40;94.70;;;;;;988068;145;27253;-79
2021/12/11 07:25:48;;;;;;;12.07;10.33;;;6.40;94.70;;;;;;989182;142;27260;-78
2021/12/11 07:28:15;;;;;;;12.07;9.07;;;6.40;94.70;;;;;;993802;142;27261;-79
2021/12/11 07:30:41;;;;;;;9.47;8.47;;;6.40;94.70;;;;;;1001571;142;27326;-79
2021/12/11 07:33:08;;;;;;;10.70;9.57;;;6.40;94.70;;;;;;987465;144;27299;-80
2021/12/11 07:35:35;;;;;;;10.30;8.57;;;6.40;94.70;;;;;;989176;142;27381;-79
2021/12/11 07:38:01;;;;;;;9.20;8.20;;;6.30;94.60;;;;;;973394;145;27757;-79
2021/12/11 07:40:28;;;;;;;11.03;9.53;;;6.30;94.70;;;;;;999033;142;27182;-78
2021/12/11 07:42:54;;;;;;;11.53;9.63;;;6.30;94.60;;;;;;988144;142;27282;-80
2021/12/11 07:45:21;;;;;;;10.67;9.53;;;6.30;94.60;;;;;;991213;142;27335;-79
2021/12/11 07:47:47;;;;;;;10.80;9.37;;;6.30;94.50;;;;;;990130;142;27337;-80
2021/12/11 07:50:14;;;;;;;11.93;9.87;;;6.30;94.40;;;;;;988750;143;27376;-79
2021/12/11 07:52:41;;;;;;;12.83;9.87;;;6.30;94.40;;;;;;982455;142;27302;-79
2021/12/11 07:55:09;;;;;;;11.33;10.13;;;6.20;94.30;;;;;;982693;145;27744;-80
2021/12/11 07:57:34;;;;;;;11.03;9.93;;;6.20;94.20;;;;;;974629;142;27362;-79
2021/12/11 08:00:00;;;;;;;10.93;9.80;;;6.20;94.20;;;;;;990251;142;27350;-80
2021/12/11 08:02:27;;;;;;;11.80;10.63;;;6.10;94.10;;;;;;986052;143;27412;-79
2021/12/11 08:04:54;;;;;;;13.00;11.47;;;6.10;94.30;;;;;;989378;142;27375;-80
2021/12/11 08:07:20;;;;;;;13.50;11.47;;;6.10;94.40;;;;;;977632;145;27354;-79
2021/12/11 08:09:47;;;;;;;15.93;10.87;;;6.10;94.30;;;;;;990262;143;27296;-79
2021/12/11 08:12:13;;;;;;;10.83;9.80;;;6.10;94.10;;;;;;986009;145;27305;-80
2021/12/11 08:14:40;;;;;;;12.53;11.10;;;6.00;94.00;;;;;;969056;147;27287;-80
2021/12/11 08:17:07;;;;;;;15.50;10.00;;;6.00;93.90;;;;;;963945;148;27266;-79
2021/12/11 08:19:33;;;;;;;11.97;10.47;;;5.90;93.90;;;;;;964643;145;27462;-79
2021/12/11 08:22:00;;;;;;;11.83;10.53;;;5.80;93.90;;;;;;961249;147;27310;-79
2021/12/11 08:24:28;;;;;;;14.87;11.87;;;5.80;94.00;;;;;;959842;147;27291;-80
2021/12/11 08:26:53;;;;;;;14.97;12.67;;;5.80;94.10;;;;;;944500;148;27286;-79
2021/12/11 08:29:19;;;;;;;14.73;12.67;;;5.80;94.20;;;;;;969040;145;27338;-76
2021/12/11 08:31:46;;;;;;;16.50;12.67;;;5.80;94.50;;;;;;956394;148;27388;-80
2021/12/11 08:34:13;;;;;;;14.87;13.30;;;5.80;94.60;;;;;;948800;149;27408;-79
2021/12/11 08:36:39;;;;;;;16.00;13.03;;;5.80;94.80;;;;;;956004;147;27303;-79
2021/12/11 08:39:06;;;;;;;15.60;12.50;;;5.80;95.00;;;;;;957809;147;27413;-79
2021/12/11 08:41:32;;;;;;;15.67;12.93;;;5.80;95.20;;;;;;953134;147;27335;-78
2021/12/11 08:44:04;;;;;;;15.17;12.47;;;5.90;95.50;;;;;;958076;147;27358;-79
2021/12/11 08:46:27;;;;;;;15.30;13.07;;;6.00;95.70;;;;;;939773;148;27326;-79
2021/12/11 08:48:53;;;;;;;13.20;11.77;;;6.10;95.70;;;;;;939956;148;27407;-78
2021/12/11 08:51:19;;;;;;;19.43;13.60;;;6.10;95.60;;;;;;956810;145;27279;-78
2021/12/11 08:53:45;;;;;;;14.70;13.13;;;6.20;95.50;;;;;;945215;150;27370;-79
2021/12/11 08:56:13;;;;;;;18.57;13.20;;;6.30;95.40;;;;;;934314;150;27374;-79
2021/12/11 08:58:38;;;;;;;14.87;13.27;;;6.30;95.20;;;;;;941048;148;27297;-79
2021/12/11 09:01:08;;;;;;;15.93;13.13;;;6.40;95.20;;;;;;940796;148;27461;-79
2021/12/11 09:03:52;;;;;;;14.37;12.27;;;6.40;95.20;;;;;;941426;150;27332;-79
2021/12/11 09:06:22;;;;;;;14.67;13.17;;;6.40;95.10;;;;;;957294;145;27282;-79
2021/12/11 09:08:48;;;;;;;17.57;13.57;;;6.50;95.00;;;;;;944644;149;27245;-79
2021/12/11 09:11:30;;;;;;;15.67;13.57;;;6.50;94.90;;;;;;954252;145;27428;-79
2021/12/11 09:14:05;;;;;;;16.23;13.67;;;6.50;94.80;;;;;;951331;150;27269;-79
2021/12/11 09:16:40;;;;;;;15.60;13.67;;;6.60;94.70;;;;;;939330;149;27301;-77
2021/12/11 09:19:10;;;;;;;14.80;13.00;;;6.60;94.60;;;;;;953218;148;27346;-78
2021/12/11 09:21:52;;;;;;;15.80;13.77;;;6.60;94.60;;;;;;971066;143;27289;-75
2021/12/11 09:24:23;;;;;;;15.53;13.17;;;6.60;94.60;;;;;;970709;143;27233;-80
2021/12/11 09:27:06;;;;;;;18.63;13.87;;;6.60;94.70;;;;;;975128;143;27286;-78
2021/12/11 09:29:33;;;;;;;18.40;14.47;;;6.60;94.80;;;;;;972023;143;27305;-78
2021/12/11 09:32:02;;;;;;;17.70;14.53;;;6.60;94.90;;;;;;973708;143;27286;-78
2021/12/11 09:34:28;;;;;;;16.47;13.83;;;6.70;95.20;;;;;;970976;143;27397;-78
2021/12/11 09:36:57;;;;;;;16.10;14.37;;;6.80;95.40;;;;;;971104;143;27324;-78
2021/12/11 09:39:24;;;;;;;16.70;13.37;;;6.80;95.60;;;;;;968191;143;27266;-78
2021/12/11 09:41:50;;;;;;;15.53;13.63;;;6.90;95.70;;;;;;965174;143;27278;-78
2021/12/11 09:44:17;;;;;;;19.03;13.70;;;7.10;95.90;;;;;;976813;143;27226;-77
2021/12/11 09:47:05;;;;;;;15.53;13.90;;;7.20;96.00;;;;;;970631;143;27230;-77
2021/12/11 09:49:32;;;;;;;16.50;14.17;;;7.30;96.10;;;;;;971047;147;27222;-80
2021/12/11 09:52:15;;;;;;;18.40;14.53;;;7.50;96.00;;;;;;972720;147;27361;-77
2021/12/11 09:54:31;;;;;;;17.97;14.63;;;7.70;96.10;;;;;;963783;147;27309;-78
2021/12/11 09:57:09;;;;;;;23.17;15.50;;;7.90;96.00;;;;;;974174;144;27301;-77
2021/12/11 09:59:36;;;;;;;18.23;14.37;;;8.00;95.80;;;;;;979013;143;27249;-78
2021/12/11 10:02:02;;;;;;;16.00;14.30;;;8.20;95.50;;;;;;980350;146;27264;-78
2021/12/11 10:04:32;;;;;;;17.73;15.23;;;8.30;95.10;;;;;;979427;143;27621;-78
2021/12/11 10:09:25;;;;;;;16.80;13.87;;;8.50;94.60;;;;;;973892;143;27294;-77
2021/12/11 10:11:51;;;;;;;19.10;15.23;;;8.60;94.40;;;;;;973671;143;27394;-77
2021/12/11 10:14:18;;;;;;;17.43;14.73;;;8.70;94.40;;;;;;973364;145;27314;-77
2021/12/11 10:16:45;;;;;;;16.93;13.97;;;8.80;94.30;;;;;;964471;143;27864;-77
2021/12/11 10:19:11;;;;;;;19.27;15.27;;;8.90;94.30;;;;;;973283;146;27238;-76
2021/12/11 10:21:43;;;;;;;17.63;14.17;;;9.10;94.20;;;;;;977858;143;27830;-76
2021/12/11 10:24:10;;;;;;;17.10;14.47;;;9.20;94.10;;;;;;975694;143;27705;-77
2021/12/11 10:26:37;;;;;;;16.10;14.40;;;9.30;93.70;;;;;;963297;143;27273;-78
2021/12/11 10:29:03;;;;;;;17.73;15.13;;;9.40;93.40;;;;;;971442;143;27341;-77
2021/12/11 10:31:30;;;;;;;18.77;15.60;;;9.40;93.10;;;;;;970585;147;27344;-74
2021/12/11 10:33:56;;;;;;;17.47;14.63;;;9.50;92.80;;;;;;987027;143;27214;-76
2021/12/11 10:36:25;;;;;;;17.07;15.20;;;9.50;92.60;;;;;;953639;147;27267;-75
2021/12/11 10:38:50;;;;;;;15.07;13.37;;;9.60;92.30;;;;;;951610;150;27308;-77
2021/12/11 10:41:16;;;;;;;17.80;14.90;;;9.60;92.20;;;;;;991488;143;27812;-77
2021/12/11 10:43:43;;;;;;;16.40;14.27;;;9.60;92.00;;;;;;961366;149;27344;-77
2021/12/11 10:46:10;;;;;;;16.87;14.90;;;9.70;92.00;;;;;;962532;146;27306;-76
2021/12/11 10:48:37;;;;;;;15.93;14.23;;;9.70;92.10;;;;;;976378;143;27364;-76
2021/12/11 10:51:05;;;;;;;16.80;14.00;;;9.80;92.00;;;;;;972098;143;27281;-77
2021/12/11 10:53:32;;;;;;;17.03;13.67;;;9.80;91.90;;;;;;969603;147;27286;-78
2021/12/11 10:55:59;;;;;;;16.83;13.47;;;9.90;91.70;;;;;;966401;147;27294;-77
2021/12/11 10:58:28;;;;;;;17.83;14.07;;;9.90;91.50;;;;;;966372;147;27238;-77
2021/12/11 11:00:57;;;;;;;18.00;13.73;;;10.00;91.30;;;;;;973742;147;27366;-78
2021/12/11 11:03:24;;;;;;;14.83;13.23;;;10.00;91.10;;;;;;982290;143;27746;-76
2021/12/11 11:05:50;;;;;;;18.70;14.43;;;10.00;90.90;;;;;;981974;143;27234;-77
2021/12/11 11:08:17;;;;;;;16.50;13.97;;;10.00;90.60;;;;;;975719;145;27258;-77
2021/12/11 11:10:44;;;;;;;17.00;14.53;;;10.00;90.40;;;;;;974419;143;27312;-77
2021/12/11 11:13:10;;;;;;;16.03;13.87;;;10.00;90.20;;;;;;997967;143;27280;-76
2021/12/11 11:15:37;;;;;;;18.07;13.83;;;10.00;90.00;;;;;;988544;143;27363;-76
2021/12/11 11:18:03;;;;;;;20.63;13.50;;;10.00;89.60;;;;;;977808;147;27846;-77
2021/12/11 11:20:33;;;;;;;16.87;13.17;;;10.00;89.60;;;;;;992354;143;27239;-77
2021/12/11 11:23:00;;;;;;;15.87;13.97;;;10.00;89.50;;;;;;984241;145;27340;-76
2021/12/11 11:25:26;;;;;;;18.27;13.70;;;9.90;89.50;;;;;;981321;145;27235;-77
2021/12/11 11:27:56;;;;;;;16.10;13.07;;;9.90;89.30;;;;;;988610;143;27290;-78
2021/12/11 11:30:20;;;;;;;18.30;13.73;;;9.90;89.30;;;;;;976539;142;27288;-77
2021/12/11 11:32:46;;;;;;;17.67;13.73;;;9.90;89.20;;;;;;988141;145;27358;-77
2021/12/11 11:35:15;;;;;;;14.20;12.43;;;9.90;89.10;;;;;;983298;144;27271;-77
2021/12/11 11:37:42;;;;;;;18.13;13.00;;;9.90;89.00;;;;;;992118;142;27336;-77
2021/12/11 11:40:09;;;;;;;19.80;14.90;;;9.90;88.70;;;;;;1008569;142;27222;-77
2021/12/11 11:42:35;;;;;;;19.27;14.60;;;9.90;88.20;;;;;;985251;145;27308;-77
2021/12/11 11:45:02;;;;;;;21.67;15.30;;;9.90;88.10;;;;;;984764;145;27382;-76
2021/12/11 11:47:29;;;;;;;20.67;15.13;;;9.90;87.90;;;;;;987691;142;27681;-77
2021/12/11 11:49:59;;;;;;;17.83;13.00;;;9.90;88.10;;;;;;986897;142;27309;-76
2021/12/11 11:52:22;;;;;;;17.63;13.40;;;9.90;88.20;;;;;;988988;142;27389;-76
2021/12/11 11:54:48;;;;;;;18.90;13.53;;;9.80;88.40;;;;;;990719;145;27279;-77
2021/12/11 11:57:18;;;;;;;18.53;13.50;;;9.80;88.40;;;;;;990199;145;27348;-78
2021/12/11 11:59:44;;;;;;;16.53;12.37;;;9.90;88.40;;;;;;982118;145;27318;-76
2021/12/11 12:02:11;;;;;;;18.70;13.50;;;9.90;88.50;;;;;;985756;142;27354;-76
2021/12/11 12:04:37;;;;;;;17.57;13.70;;;9.90;88.40;;;;;;994247;142;27240;-76
2021/12/11 12:07:05;;;;;;;16.60;12.33;;;9.90;88.20;;;;;;985854;142;27287;-75
2021/12/11 12:09:31;;;;;;;16.83;13.03;;;9.90;87.90;;;;;;986084;142;27377;-79
2021/12/11 12:11:59;;;;;;;15.93;13.03;;;9.90;87.80;;;;;;983207;142;27271;-79
2021/12/11 12:14:24;;;;;;;17.50;13.83;;;10.00;87.80;;;;;;989278;144;27324;-79
2021/12/11 12:16:50;;;;;;;17.80;13.20;;;9.90;87.30;;;;;;987866;142;27284;-78
2021/12/11 12:19:17;;;;;;;16.63;12.20;;;10.00;87.80;;;;;;987178;145;27289;-79
2021/12/11 12:21:44;;;;;;;14.80;12.47;;;10.00;87.80;;;;;;987836;144;27337;-79
2021/12/11 12:24:10;;;;;;;17.70;12.90;;;10.00;87.60;;;;;;988313;142;27232;-74
2021/12/11 12:26:37;;;;;;;16.23;12.43;;;10.00;87.20;;;;;;989482;142;27400;-76
2021/12/11 12:29:03;;;;;;;19.83;14.53;;;10.00;87.30;;;;;;987313;142;27363;-76
2021/12/11 12:31:33;;;;;;;19.03;13.63;;;10.00;87.20;;;;;;988919;142;27400;-77
2021/12/11 12:33:59;;;;;;;15.93;12.70;;;10.10;87.30;;;;;;988806;142;27320;-77
2021/12/11 12:36:26;;;;;;;16.20;12.87;;;10.10;87.10;;;;;;986187;142;27299;-77
2021/12/11 12:38:53;;;;;;;14.63;12.43;;;10.10;86.80;;;;;;988108;143;27275;-76
2021/12/11 12:41:22;;;;;;;15.03;12.50;;;10.10;86.80;;;;;;991683;143;27349;-77
2021/12/11 12:44:16;;;;;;;16.73;12.87;;;10.20;86.80;;;;;;992339;142;27291;-77
2021/12/11 12:46:29;;;;;;;16.80;12.33;;;10.20;86.50;;;;;;997252;142;27353;-77
2021/12/11 12:48:56;;;;;;;15.77;12.23;;;10.20;86.30;;;;;;999343;142;27224;-78
2021/12/11 12:51:23;;;;;;;17.37;13.17;;;10.30;85.90;;;;;;994160;142;27317;-76
2021/12/11 12:53:49;;;;;;;15.13;11.80;;;10.30;85.40;;;;;;983820;144;27311;-76
2021/12/11 12:56:19;;;;;;;13.33;10.73;;;10.30;85.20;;;;;;992223;143;27632;-77
2021/12/11 12:58:45;;;;;;;15.73;12.83;;;10.30;85.00;;;;;;999949;142;27951;-76